createdAt,value
2022-08-16T00:02:11.973Z,4.25
2022-08-16T00:04:41.065Z,4.53
2022-08-16T00:07:08.225Z,4.32
2022-08-16T00:09:37.558Z,5.25
2022-08-16T00:12:09.180Z,4.60
2022-08-16T00:14:36.478Z,3.97
2022-08-16T00:17:18.620Z,4.22
2022-08-16T00:19:47.494Z,4.53
2022-08-16T00:22:20.982Z,4.30
2022-08-16T00:24:52.890Z,4.15
2022-08-16T00:27:21.671Z,4.07
2022-08-16T00:30:00.601Z,4.40
2022-08-16T00:32:32.680Z,4.03
2022-08-16T00:35:01.773Z,4.50
2022-08-16T00:37:57.951Z,4.55
2022-08-16T00:40:33.299Z,4.55
2022-08-16T00:43:01.338Z,4.80
2022-08-16T00:45:35.536Z,4.25
2022-08-16T00:48:31.311Z,4.65
2022-08-16T00:50:55.540Z,4.80
2022-08-16T00:53:23.128Z,4.20
2022-08-16T00:55:52.646Z,4.45
2022-08-16T00:58:34.586Z,4.85
2022-08-16T01:01:02.568Z,4.25
2022-08-16T01:03:31.739Z,4.80
2022-08-16T01:06:40.498Z,4.60
2022-08-16T01:08:51.994Z,4.57
2022-08-16T01:11:20.025Z,4.57
2022-08-16T01:13:49.603Z,4.50
2022-08-16T01:16:22.434Z,4.70
2022-08-16T01:18:59.665Z,4.82
2022-08-16T01:21:33.822Z,4.60
2022-08-16T01:24:02.293Z,5.15
2022-08-16T01:26:34.333Z,4.75
2022-08-16T01:29:06.122Z,5.07
2022-08-16T01:31:42.527Z,4.72
2022-08-16T01:34:23.230Z,5.43
2022-08-16T01:37:03.364Z,5.28
2022-08-16T01:39:31.748Z,5.63
2022-08-16T01:42:04.584Z,5.63
2022-08-16T01:44:40.202Z,5.82
2022-08-16T01:47:08.111Z,5.65
2022-08-16T01:49:45.431Z,5.72
2022-08-16T01:52:29.549Z,4.57
2022-08-16T01:54:57.886Z,4.45
2022-08-16T01:57:26.869Z,5.38
2022-08-16T01:59:54.968Z,5.10
2022-08-16T02:02:28.531Z,4.75
2022-08-16T02:04:57.487Z,4.57
2022-08-16T02:07:25.457Z,4.70
2022-08-16T02:09:58.725Z,5.30
2022-08-16T02:12:45.868Z,5.10
2022-08-16T02:15:25.293Z,4.80
2022-08-16T02:17:53.460Z,5.55
2022-08-16T02:20:26.263Z,6.20
2022-08-16T02:22:55.340Z,5.28
2022-08-16T02:25:24.239Z,4.60
2022-08-16T02:27:51.931Z,5.13
2022-08-16T02:30:37.964Z,4.82
2022-08-16T02:33:10.246Z,5.27
2022-08-16T02:35:49.892Z,5.15
2022-08-16T02:38:23.066Z,5.18
2022-08-16T02:40:51.650Z,5.82
2022-08-16T02:43:21.713Z,5.68
2022-08-16T02:45:54.722Z,5.63
2022-08-16T02:48:29.966Z,5.28
2022-08-16T02:51:06.625Z,5.57
2022-08-16T02:53:43.227Z,5.50
2022-08-16T02:56:14.851Z,5.45
2022-08-16T02:58:44.118Z,5.35
2022-08-16T03:01:15.220Z,5.78
2022-08-16T03:04:39.374Z,5.10
2022-08-16T03:06:42.264Z,5.35
2022-08-16T03:09:13.827Z,5.80
2022-08-16T03:11:42.353Z,5.50
2022-08-16T03:14:11.389Z,5.82
2022-08-16T03:16:42.207Z,5.43
2022-08-16T03:19:26.947Z,5.93
2022-08-16T03:22:19.355Z,5.55
2022-08-16T03:24:57.342Z,5.70
2022-08-16T03:27:25.286Z,5.93
2022-08-16T03:29:58.605Z,5.53
2022-08-16T03:32:26.224Z,5.13
2022-08-16T03:34:53.491Z,5.55
2022-08-16T03:37:20.703Z,5.85
2022-08-16T03:39:48.150Z,5.53
2022-08-16T03:42:23.786Z,5.90
2022-08-16T03:44:51.232Z,5.20
2022-08-16T03:47:30.419Z,5.40
2022-08-16T03:50:02.923Z,5.95
2022-08-16T03:52:31.499Z,5.95
2022-08-16T03:54:59.462Z,5.55
2022-08-16T03:57:32.045Z,6.18
2022-08-16T04:00:35.566Z,6.05
2022-08-16T04:03:07.154Z,5.65
2022-08-16T04:05:39.631Z,6.03
2022-08-16T04:08:23.711Z,6.28
2022-08-16T04:10:52.807Z,6.07
2022-08-16T04:13:58.710Z,5.57
2022-08-16T04:16:07.921Z,6.25
2022-08-16T04:18:42.781Z,5.60
2022-08-16T04:21:13.414Z,6.38
2022-08-16T04:23:56.925Z,6.10
2022-08-16T04:26:24.102Z,5.93
2022-08-16T04:29:21.626Z,5.97
2022-08-16T04:31:45.876Z,5.80
2022-08-16T04:34:14.734Z,6.00
2022-08-16T04:36:43.765Z,6.20
2022-08-16T04:39:16.350Z,6.28
2022-08-16T04:41:44.041Z,6.20
2022-08-16T04:44:30.970Z,6.38
2022-08-16T04:47:01.128Z,6.50
2022-08-16T04:49:38.555Z,6.28
2022-08-16T04:52:33.294Z,7.18
2022-08-16T04:55:00.886Z,6.50
2022-08-16T04:57:30.651Z,6.57
2022-08-16T04:59:57.959Z,6.50
2022-08-16T05:02:41.606Z,5.80
2022-08-16T05:05:17.248Z,6.80
2022-08-16T05:07:57.886Z,6.53
2022-08-16T05:10:27.288Z,6.47
2022-08-16T05:12:54.690Z,6.32
2022-08-16T05:15:23.943Z,6.10
2022-08-16T05:17:58.432Z,6.15
2022-08-16T05:20:39.566Z,6.82
2022-08-16T05:23:15.126Z,6.20
2022-08-16T05:25:48.779Z,6.70
2022-08-16T05:28:17.539Z,6.57
2022-08-16T05:30:45.606Z,6.55
2022-08-16T05:33:18.433Z,6.22
2022-08-16T05:35:55.426Z,6.45
2022-08-16T05:38:32.427Z,6.13
2022-08-16T05:41:07.212Z,6.03
2022-08-16T05:43:43.246Z,6.10
2022-08-16T05:46:28.777Z,5.57
2022-08-16T05:49:03.763Z,5.70
2022-08-16T05:51:37.691Z,5.00
2022-08-16T05:54:11.193Z,6.25
2022-08-16T05:56:39.426Z,6.35
2022-08-16T05:59:08.164Z,6.00
2022-08-16T06:01:38.971Z,6.20
2022-08-16T06:04:13.672Z,5.60
2022-08-16T06:06:56.024Z,6.13
2022-08-16T06:09:24.065Z,6.25
2022-08-16T06:11:51.489Z,5.95
2022-08-16T06:14:19.257Z,5.85
2022-08-16T06:16:50.888Z,5.90
2022-08-16T06:19:18.505Z,5.85
2022-08-16T06:21:48.040Z,6.40
2022-08-16T06:24:54.955Z,7.13
2022-08-16T06:27:09.929Z,7.75
2022-08-16T06:29:37.586Z,7.82
2022-08-16T06:32:05.291Z,7.15
2022-08-16T06:34:56.872Z,6.97
2022-08-16T06:37:23.567Z,6.97
2022-08-16T06:39:50.903Z,8.00
2022-08-16T06:42:19.014Z,8.00
2022-08-16T06:44:46.811Z,7.80
2022-08-16T06:47:17.029Z,7.45
2022-08-16T06:49:52.522Z,7.00
2022-08-16T06:52:55.510Z,7.53
2022-08-16T06:55:12.932Z,7.40
2022-08-16T06:57:41.334Z,7.13
2022-08-16T07:00:24.229Z,7.80
2022-08-16T07:02:53.919Z,7.88
2022-08-16T07:05:27.368Z,8.75
2022-08-16T07:08:11.718Z,8.45
2022-08-16T07:10:41.525Z,9.40
2022-08-16T07:13:12.803Z,9.30
2022-08-16T07:15:50.791Z,9.43
2022-08-16T07:18:21.615Z,10.50
2022-08-16T07:20:53.938Z,10.05
2022-08-16T07:23:37.359Z,10.02
2022-08-16T07:26:08.851Z,10.10
2022-08-16T07:28:36.746Z,10.13
2022-08-16T07:31:05.045Z,9.95
2022-08-16T07:33:52.524Z,8.93
2022-08-16T07:36:22.723Z,8.30
2022-08-16T07:38:50.719Z,8.77
2022-08-16T07:41:18.612Z,7.38
2022-08-16T07:43:47.577Z,7.28
2022-08-16T07:46:38.500Z,7.93
2022-08-16T07:49:03.164Z,7.07
2022-08-16T07:51:37.134Z,7.57
2022-08-16T07:54:10.174Z,7.38
2022-08-16T07:56:38.571Z,8.48
2022-08-16T07:59:06.944Z,8.57
2022-08-16T08:01:35.125Z,8.95
2022-08-16T08:04:03.970Z,9.40
2022-08-16T08:06:32.840Z,9.27
2022-08-16T08:09:00.510Z,9.57
2022-08-16T08:11:28.852Z,7.75
2022-08-16T08:13:57.535Z,6.75
2022-08-16T08:16:31.266Z,7.25
2022-08-16T08:19:00.900Z,6.43
2022-08-16T08:21:59.667Z,6.70
2022-08-16T08:24:17.728Z,6.18
2022-08-16T08:26:50.100Z,6.78
2022-08-16T08:29:22.988Z,6.93
2022-08-16T08:31:52.015Z,7.72
2022-08-16T08:34:21.245Z,7.75
2022-08-16T08:36:54.049Z,7.40
2022-08-16T08:39:21.998Z,6.97
2022-08-16T08:41:51.265Z,5.90
2022-08-16T08:44:28.426Z,6.03
2022-08-16T08:46:59.639Z,5.60
2022-08-16T08:49:50.737Z,5.32
2022-08-16T08:52:34.497Z,4.70
2022-08-16T08:55:10.576Z,4.90
2022-08-16T08:57:48.138Z,4.97
2022-08-16T09:00:17.677Z,4.72
2022-08-16T09:02:52.173Z,4.45
2022-08-16T09:05:20.769Z,4.03
2022-08-16T09:08:00.271Z,4.03
2022-08-16T09:10:29.355Z,4.25
2022-08-16T09:12:57.271Z,4.22
2022-08-16T09:15:24.669Z,4.45
2022-08-16T09:17:56.793Z,4.85
2022-08-16T09:20:25.641Z,5.32
2022-08-16T09:22:53.262Z,5.63
2022-08-16T09:25:26.040Z,5.88
2022-08-16T09:27:57.144Z,6.20
2022-08-16T09:30:33.739Z,7.38
2022-08-16T09:33:06.513Z,7.45
2022-08-16T09:35:34.412Z,7.90
2022-08-16T09:38:05.555Z,7.65
2022-08-16T09:40:42.426Z,6.97
2022-08-16T09:43:21.123Z,6.53
2022-08-16T09:45:59.121Z,6.32
2022-08-16T09:48:44.215Z,7.03
2022-08-16T09:51:13.148Z,7.70
2022-08-16T09:53:41.768Z,7.45
2022-08-16T09:56:15.899Z,7.60
2022-08-16T09:59:03.814Z,7.07
2022-08-16T10:01:33.429Z,7.28
2022-08-16T10:04:02.276Z,7.47
2022-08-16T10:06:33.301Z,7.35
2022-08-16T10:09:05.226Z,7.55
2022-08-16T10:11:53.982Z,6.35
2022-08-16T10:14:24.787Z,7.43
2022-08-16T10:17:02.222Z,7.22
2022-08-16T10:19:31.955Z,7.40
2022-08-16T10:22:05.276Z,7.97
2022-08-16T10:24:32.850Z,7.07
2022-08-16T10:27:22.241Z,8.63
2022-08-16T10:30:01.058Z,7.15
2022-08-16T10:32:33.500Z,6.93
2022-08-16T10:35:03.845Z,7.00
2022-08-16T10:37:32.548Z,7.45
2022-08-16T10:40:06.174Z,7.70
2022-08-16T10:42:53.213Z,7.70
2022-08-16T10:45:20.800Z,8.32
2022-08-16T10:48:00.906Z,8.68
2022-08-16T10:50:31.429Z,8.00
2022-08-16T10:52:59.648Z,8.40
2022-08-16T10:55:44.172Z,8.55
2022-08-16T10:58:17.038Z,7.78
2022-08-16T11:00:46.309Z,8.48
2022-08-16T11:06:05.998Z,8.77
2022-08-16T11:08:36.210Z,9.57
2022-08-16T11:11:11.707Z,9.85
2022-08-16T11:14:10.629Z,8.82
2022-08-16T11:19:22.787Z,8.25
2022-08-16T11:24:43.332Z,8.60
2022-08-16T11:27:23.848Z,9.25
2022-08-16T11:30:00.306Z,8.95
2022-08-16T11:32:33.647Z,8.43
2022-08-16T11:35:10.978Z,9.15
2022-08-16T11:40:32.981Z,8.90
2022-08-16T11:43:04.220Z,8.63
2022-08-16T11:45:33.526Z,8.32
2022-08-16T11:48:02.860Z,9.32
2022-08-16T11:50:33.382Z,10.15
2022-08-16T11:53:05.610Z,10.60
2022-08-16T11:55:38.070Z,10.00
2022-08-16T11:58:07.172Z,10.52
2022-08-16T12:00:51.922Z,11.65
2022-08-16T12:03:25.061Z,11.30
2022-08-16T12:06:02.662Z,12.10
2022-08-16T12:08:30.673Z,11.27
2022-08-16T12:11:02.346Z,10.85
2022-08-16T12:13:30.020Z,10.85
2022-08-16T12:15:57.417Z,11.30
2022-08-16T12:18:24.774Z,11.68
2022-08-16T12:20:52.087Z,11.95
2022-08-16T12:23:22.924Z,12.38
2022-08-16T12:25:51.058Z,13.35
2022-08-16T12:28:36.792Z,13.20
2022-08-16T12:31:06.877Z,12.50
2022-08-16T12:33:44.448Z,13.65
2022-08-16T12:36:14.154Z,12.93
2022-08-16T12:38:48.334Z,11.98
2022-08-16T12:41:24.615Z,12.35
2022-08-16T12:43:53.066Z,11.63
2022-08-16T12:46:24.723Z,11.90
2022-08-16T12:48:58.471Z,10.68
2022-08-16T12:51:58.482Z,11.43
2022-08-16T12:54:20.766Z,10.95
2022-08-16T12:56:48.253Z,10.13
2022-08-16T12:59:20.110Z,10.85
2022-08-16T13:01:50.220Z,9.80
2022-08-16T13:04:20.286Z,10.98
2022-08-16T13:09:26.342Z,10.23
2022-08-16T13:12:04.392Z,10.98
2022-08-16T13:14:37.920Z,11.25
2022-08-16T13:17:07.045Z,11.63
2022-08-16T13:20:05.492Z,10.02
2022-08-16T13:22:22.952Z,10.80
2022-08-16T13:24:51.426Z,10.27
2022-08-16T13:27:18.624Z,10.07
2022-08-16T13:29:57.399Z,8.73
2022-08-16T13:32:40.421Z,9.55
2022-08-16T13:35:11.803Z,8.55
2022-08-16T13:37:39.733Z,7.68
2022-08-16T13:40:09.442Z,8.05
2022-08-16T13:42:47.549Z,8.55
2022-08-16T13:45:16.170Z,8.25
2022-08-16T13:47:43.761Z,8.40
2022-08-16T13:50:12.994Z,9.52
2022-08-16T13:52:40.741Z,10.82
2022-08-16T13:55:17.465Z,10.68
2022-08-16T13:58:35.729Z,11.85
2022-08-16T14:00:34.211Z,10.27
2022-08-16T14:03:02.407Z,9.48
2022-08-16T14:05:29.614Z,9.85
2022-08-16T14:07:56.854Z,10.13
2022-08-16T14:10:24.384Z,9.90
2022-08-16T14:12:52.069Z,10.02
2022-08-16T14:15:20.961Z,9.48
2022-08-16T14:18:16.911Z,10.20
2022-08-16T14:20:35.555Z,9.63
2022-08-16T14:23:06.321Z,10.32
2022-08-16T14:25:33.614Z,10.00
2022-08-16T14:28:00.817Z,9.35
2022-08-16T14:30:28.177Z,9.73
2022-08-16T14:32:56.117Z,10.80
2022-08-16T14:35:36.655Z,10.60
2022-08-16T14:38:17.925Z,12.27
2022-08-16T14:40:51.066Z,12.40
2022-08-16T14:43:22.202Z,11.40
2022-08-16T14:45:50.372Z,11.63
2022-08-16T14:48:25.124Z,10.63
2022-08-16T14:50:53.492Z,12.57
2022-08-16T14:53:21.227Z,15.07
2022-08-16T14:55:49.717Z,16.33
2022-08-16T14:58:19.525Z,14.77
2022-08-16T15:00:47.891Z,12.20
2022-08-16T15:03:18.398Z,14.23
2022-08-16T15:05:48.950Z,12.85
2022-08-16T15:08:21.188Z,12.30
2022-08-16T15:11:04.059Z,12.27
2022-08-16T15:13:31.379Z,13.05
2022-08-16T15:16:02.461Z,13.13
2022-08-16T15:18:31.725Z,13.88
2022-08-16T15:20:59.698Z,13.98
2022-08-16T15:23:27.018Z,10.20
2022-08-16T15:26:02.882Z,12.40
2022-08-16T15:28:32.581Z,12.30
2022-08-16T15:31:03.179Z,11.18
2022-08-16T15:33:32.474Z,11.00
2022-08-16T15:36:00.044Z,10.45
2022-08-16T15:38:56.783Z,10.70
2022-08-16T15:41:34.338Z,10.32
2022-08-16T15:44:05.396Z,10.35
2022-08-16T15:46:55.543Z,10.20
2022-08-16T15:49:25.108Z,11.00
2022-08-16T15:52:03.074Z,11.02
2022-08-16T15:54:32.674Z,10.90
2022-08-16T15:57:11.063Z,10.27
2022-08-16T15:59:48.016Z,10.82
2022-08-16T16:02:16.793Z,10.88
2022-08-16T16:04:55.409Z,10.45
2022-08-16T16:07:22.935Z,11.98
2022-08-16T16:09:53.156Z,12.80
2022-08-16T16:12:50.850Z,13.60
2022-08-16T16:15:09.085Z,16.63
2022-08-16T16:17:36.490Z,16.17
2022-08-16T16:20:08.187Z,19.38
2022-08-16T16:22:43.597Z,19.02
2022-08-16T16:25:11.153Z,23.73
2022-08-16T16:27:38.384Z,23.38
2022-08-16T16:30:32.531Z,22.02
2022-08-16T16:32:58.207Z,16.85
2022-08-16T16:35:29.056Z,15.63
2022-08-16T16:37:59.995Z,12.73
2022-08-16T16:40:32.546Z,12.95
2022-08-16T16:43:01.032Z,12.32
2022-08-16T16:45:34.854Z,11.98
2022-08-16T16:48:12.148Z,11.80
2022-08-16T16:50:40.966Z,11.40
2022-08-16T16:53:17.825Z,11.45
2022-08-16T16:55:51.576Z,11.07
2022-08-16T16:58:43.324Z,9.98
2022-08-16T17:01:12.685Z,9.98
2022-08-16T17:03:41.651Z,10.88
2022-08-16T17:06:10.527Z,10.95
2022-08-16T17:08:41.449Z,10.35
2022-08-16T17:11:10.184Z,10.70
2022-08-16T17:13:38.554Z,11.55
2022-08-16T17:16:06.370Z,11.05
2022-08-16T17:19:16.952Z,11.55
2022-08-16T17:21:23.607Z,10.55
2022-08-16T17:23:59.316Z,11.52
2022-08-16T17:26:30.143Z,11.77
2022-08-16T17:29:02.594Z,10.32
2022-08-16T17:31:43.430Z,11.38
2022-08-16T17:34:29.543Z,12.27
2022-08-16T17:36:59.716Z,11.68
2022-08-16T17:39:30.020Z,11.45
2022-08-16T17:42:01.799Z,11.30
2022-08-16T17:44:29.158Z,9.95
2022-08-16T17:46:56.677Z,11.18
2022-08-16T17:49:23.910Z,9.27
2022-08-16T17:51:51.305Z,9.80
2022-08-16T17:54:30.061Z,10.52
2022-08-16T17:56:58.527Z,10.70
2022-08-16T17:59:28.222Z,10.73
2022-08-16T18:01:56.134Z,11.90
2022-08-16T18:04:49.340Z,12.57
2022-08-16T18:07:11.233Z,14.07
2022-08-16T18:09:40.797Z,14.75
2022-08-16T18:12:41.638Z,14.82
2022-08-16T18:15:03.214Z,13.70
2022-08-16T18:17:31.283Z,12.43
2022-08-16T18:19:58.516Z,12.23
2022-08-16T18:22:30.559Z,12.30
2022-08-16T18:24:58.393Z,12.88
2022-08-16T18:27:27.260Z,12.20
2022-08-16T18:29:54.836Z,11.73
2022-08-16T18:32:24.934Z,11.63
2022-08-16T18:34:54.474Z,12.50
2022-08-16T18:37:22.596Z,12.90
2022-08-16T18:39:50.133Z,11.95
2022-08-16T18:42:17.387Z,12.20
2022-08-16T18:44:45.087Z,14.75
2022-08-16T18:47:12.332Z,16.23
2022-08-16T18:49:39.513Z,16.73
2022-08-16T18:52:06.971Z,16.27
2022-08-16T18:55:01.732Z,14.35
2022-08-16T18:57:22.014Z,15.82
2022-08-16T18:59:49.217Z,18.85
2022-08-16T19:02:57.260Z,19.85
2022-08-16T19:05:13.024Z,21.85
2022-08-16T19:07:40.432Z,20.38
2022-08-16T19:10:08.709Z,21.17
2022-08-16T19:12:38.257Z,20.17
2022-08-16T19:15:11.959Z,19.25
2022-08-16T19:20:10.765Z,15.32
2022-08-16T19:23:01.581Z,14.23
2022-08-16T19:25:39.463Z,12.80
2022-08-16T19:28:21.750Z,11.80
2022-08-16T19:31:01.100Z,10.20
2022-08-16T19:33:28.578Z,11.02
2022-08-16T19:35:55.871Z,10.38
2022-08-16T19:38:23.122Z,10.00
2022-08-16T19:40:50.589Z,10.50
2022-08-16T19:43:18.056Z,9.25
2022-08-16T19:45:46.224Z,9.30
2022-08-16T19:48:14.011Z,10.13
2022-08-16T19:50:41.850Z,9.55
2022-08-16T19:53:12.343Z,10.32
2022-08-16T19:55:47.407Z,10.80
2022-08-16T19:58:18.240Z,10.85
2022-08-16T20:00:47.994Z,10.70
2022-08-16T20:03:20.830Z,14.15
2022-08-16T20:05:49.639Z,15.55
2022-08-16T20:08:17.272Z,19.83
2022-08-16T20:10:45.485Z,19.88
2022-08-16T20:13:17.510Z,19.02
2022-08-16T20:15:45.146Z,16.77
2022-08-16T20:18:24.796Z,17.08
2022-08-16T20:20:53.941Z,17.35
2022-08-16T20:23:24.775Z,18.15
2022-08-16T20:25:55.772Z,16.45
2022-08-16T20:28:45.093Z,15.40
2022-08-16T20:31:11.592Z,14.98
2022-08-16T20:33:38.797Z,14.32
2022-08-16T20:36:06.072Z,14.32
2022-08-16T20:38:35.278Z,14.52
2022-08-16T20:41:02.727Z,14.65
2022-08-16T20:43:29.962Z,14.60
2022-08-16T20:45:57.298Z,15.82
2022-08-16T20:48:24.467Z,16.05
2022-08-16T20:50:51.692Z,15.68
2022-08-16T20:53:18.958Z,15.05
2022-08-16T20:55:46.153Z,13.82
2022-08-16T20:58:13.490Z,12.25
2022-08-16T21:00:41.340Z,12.85
2022-08-16T21:03:09.753Z,11.80
2022-08-16T21:05:37.052Z,9.27
2022-08-16T21:08:10.135Z,9.00
2022-08-16T21:10:52.540Z,8.73
2022-08-16T21:13:21.356Z,9.70
2022-08-16T21:15:49.004Z,9.40
2022-08-16T21:18:16.302Z,12.98
2022-08-16T21:20:43.669Z,13.98
2022-08-16T21:23:11.324Z,15.30
2022-08-16T21:25:45.610Z,16.17
2022-08-16T21:28:41.387Z,14.40
2022-08-16T21:31:13.950Z,13.32
2022-08-16T21:33:42.733Z,13.35
2022-08-16T21:36:10.400Z,12.27
2022-08-16T21:38:37.575Z,10.57
2022-08-16T21:41:05.778Z,10.57
2022-08-16T21:43:33.663Z,10.88
2022-08-16T21:46:05.014Z,11.30
2022-08-16T21:48:35.092Z,11.00
2022-08-16T21:53:30.373Z,9.63
2022-08-16T21:55:58.889Z,9.35
2022-08-16T21:58:26.413Z,11.25
2022-08-16T22:00:54.134Z,11.82
2022-08-16T22:03:21.855Z,9.93
2022-08-16T22:06:12.620Z,10.55
2022-08-16T22:08:49.011Z,10.73
2022-08-16T22:11:18.940Z,10.85
2022-08-16T22:13:51.143Z,10.95
2022-08-16T22:16:26.187Z,11.70
2022-08-16T22:18:53.543Z,12.43
2022-08-16T22:21:21.054Z,12.23
2022-08-16T22:23:57.199Z,11.55
2022-08-16T22:26:29.817Z,11.93
2022-08-16T22:28:59.000Z,11.98
2022-08-16T22:31:27.488Z,11.95
2022-08-16T22:33:56.628Z,10.45
2022-08-16T22:36:24.048Z,10.93
2022-08-16T22:41:25.552Z,10.35
2022-08-16T22:43:53.004Z,10.52
2022-08-16T22:46:20.965Z,10.63
2022-08-16T22:48:50.402Z,11.13
2022-08-16T22:51:18.541Z,10.63
2022-08-16T22:53:45.844Z,11.20
2022-08-16T22:56:13.045Z,11.73
2022-08-16T22:58:40.291Z,11.85
2022-08-16T23:01:09.801Z,13.13
2022-08-16T23:03:37.837Z,11.82
2022-08-16T23:06:05.870Z,11.85
2022-08-16T23:08:39.247Z,11.40
2022-08-16T23:11:12.760Z,10.77
2022-08-16T23:13:51.522Z,9.52
2022-08-16T23:18:49.585Z,9.18
2022-08-16T23:21:18.094Z,10.38
2022-08-16T23:23:49.027Z,10.82
2022-08-16T23:26:46.192Z,12.57
2022-08-16T23:29:05.344Z,16.10
2022-08-16T23:31:34.091Z,15.35
2022-08-16T23:34:01.351Z,15.52
2022-08-16T23:36:28.509Z,16.00
2022-08-16T23:38:55.748Z,14.15
2022-08-16T23:41:23.823Z,12.73
2022-08-16T23:43:52.064Z,13.07
2022-08-16T23:46:19.825Z,12.30
2022-08-16T23:50:01.701Z,10.57
2022-08-16T23:51:34.760Z,9.80
2022-08-16T23:54:02.329Z,10.18
2022-08-16T23:56:32.059Z,10.75
2022-08-16T23:59:06.297Z,10.32
